sensor_id;sensor_type;location;lat;lon;timestamp;pressure;altitude;pressure_sealevel;temperature;humidity
11712;BME280;5912;51.034;6.984;2023-03-13T00:02:06;56528.59;;;-142.13;61.48
11712;BME280;5912;51.034;6.984;2023-03-13T00:04:31;56496.56;;;-142.13;61.48
11712;BME280;5912;51.034;6.984;2023-03-13T00:06:57;56496.56;;;-142.13;61.45
11712;BME280;5912;51.034;6.984;2023-03-13T00:09:22;56508.56;;;-142.13;61.57
11712;BME280;5912;51.034;6.984;2023-03-13T00:11:47;56520.59;;;-142.13;61.69
11712;BME280;5912;51.034;6.984;2023-03-13T00:14:13;56520.59;;;-142.13;61.46
11712;BME280;5912;51.034;6.984;2023-03-13T00:16:38;56532.63;;;-142.13;62.04
11712;BME280;5912;51.034;6.984;2023-03-13T00:19:05;56518.59;;;-142.13;62.00
11712;BME280;5912;51.034;6.984;2023-03-13T00:21:31;56528.59;;;-142.13;61.78
11712;BME280;5912;51.034;6.984;2023-03-13T00:23:58;56524.59;;;-142.13;61.92
11712;BME280;5912;51.034;6.984;2023-03-13T00:26:25;56514.59;;;-142.13;61.95
11712;BME280;5912;51.034;6.984;2023-03-13T00:28:51;56520.59;;;-142.13;61.98
11712;BME280;5912;51.034;6.984;2023-03-13T00:31:22;56516.59;;;-142.13;62.22
11712;BME280;5912;51.034;6.984;2023-03-13T00:33:50;56502.56;;;-142.13;62.25
11712;BME280;5912;51.034;6.984;2023-03-13T00:36:24;56486.53;;;-142.13;62.56
11712;BME280;5912;51.034;6.984;2023-03-13T00:38:50;56506.56;;;-142.13;62.80
11712;BME280;5912;51.034;6.984;2023-03-13T00:41:21;56508.56;;;-142.13;63.09
11712;BME280;5912;51.034;6.984;2023-03-13T00:43:48;56534.63;;;-142.13;63.79
11712;BME280;5912;51.034;6.984;2023-03-13T00:46:15;56512.59;;;-142.13;64.75
11712;BME280;5912;51.034;6.984;2023-03-13T00:48:41;56490.53;;;-142.13;64.45
11712;BME280;5912;51.034;6.984;2023-03-13T00:51:07;56508.56;;;-142.13;64.55
11712;BME280;5912;51.034;6.984;2023-03-13T00:53:32;56474.53;;;-142.13;64.90
11712;BME280;5912;51.034;6.984;2023-03-13T00:56:02;56492.53;;;-142.13;65.21
11712;BME280;5912;51.034;6.984;2023-03-13T00:58:30;56500.56;;;-142.13;65.25
11712;BME280;5912;51.034;6.984;2023-03-13T01:01:14;56514.59;;;-142.13;65.74
11712;BME280;5912;51.034;6.984;2023-03-13T01:03:42;56510.56;;;-142.13;64.89
11712;BME280;5912;51.034;6.984;2023-03-13T01:06:11;56512.59;;;-142.13;65.13
11712;BME280;5912;51.034;6.984;2023-03-13T01:08:36;56522.59;;;-142.13;65.04
11712;BME280;5912;51.034;6.984;2023-03-13T01:11:06;56482.53;;;-142.13;65.12
11712;BME280;5912;51.034;6.984;2023-03-13T01:13:33;56480.53;;;-142.13;64.63
11712;BME280;5912;51.034;6.984;2023-03-13T01:16:07;56492.53;;;-142.13;64.59
11712;BME280;5912;51.034;6.984;2023-03-13T01:18:34;56492.53;;;-142.13;64.39
11712;BME280;5912;51.034;6.984;2023-03-13T01:21:00;56448.47;;;-142.13;64.40
11712;BME280;5912;51.034;6.984;2023-03-13T01:23:25;56488.53;;;-142.13;64.65
11712;BME280;5912;51.034;6.984;2023-03-13T01:25:51;56512.59;;;-142.13;64.17
11712;BME280;5912;51.034;6.984;2023-03-13T01:28:17;56468.50;;;-142.13;63.88
11712;BME280;5912;51.034;6.984;2023-03-13T01:30:42;56498.56;;;-142.13;64.20
11712;BME280;5912;51.034;6.984;2023-03-13T01:33:08;56484.53;;;-142.13;63.82
11712;BME280;5912;51.034;6.984;2023-03-13T01:35:33;56460.50;;;-142.13;63.53
11712;BME280;5912;51.034;6.984;2023-03-13T01:37:58;56446.47;;;-142.13;63.07
11712;BME280;5912;51.034;6.984;2023-03-13T01:40:24;56480.53;;;-142.13;63.11
11712;BME280;5912;51.034;6.984;2023-03-13T01:42:57;56402.41;;;-142.13;63.00
11712;BME280;5912;51.034;6.984;2023-03-13T01:48:36;56454.47;;;-142.13;62.99
11712;BME280;5912;51.034;6.984;2023-03-13T01:51:55;56502.56;;;-142.13;63.46
11712;BME280;5912;51.034;6.984;2023-03-13T01:54:11;56500.56;;;-142.13;64.10
11712;BME280;5912;51.034;6.984;2023-03-13T01:56:52;56486.53;;;-142.13;64.47
11712;BME280;5912;51.034;6.984;2023-03-13T01:59:23;56508.56;;;-142.13;64.99
11712;BME280;5912;51.034;6.984;2023-03-13T02:01:52;56500.56;;;-142.13;65.26
11712;BME280;5912;51.034;6.984;2023-03-13T02:04:19;56528.59;;;-142.13;65.69
11712;BME280;5912;51.034;6.984;2023-03-13T02:06:47;56526.59;;;-142.13;66.24
11712;BME280;5912;51.034;6.984;2023-03-13T02:09:18;56508.56;;;-142.13;66.71
11712;BME280;5912;51.034;6.984;2023-03-13T02:14:22;56500.56;;;-142.13;67.93
11712;BME280;5912;51.034;6.984;2023-03-13T02:16:49;56488.53;;;-142.13;67.61
11712;BME280;5912;51.034;6.984;2023-03-13T02:19:48;56494.56;;;-142.13;67.07
11712;BME280;5912;51.034;6.984;2023-03-13T02:25:11;56496.56;;;-142.13;66.18
11712;BME280;5912;51.034;6.984;2023-03-13T02:27:40;56500.56;;;-142.13;66.05
11712;BME280;5912;51.034;6.984;2023-03-13T02:30:08;56472.50;;;-142.13;66.18
11712;BME280;5912;51.034;6.984;2023-03-13T02:32:33;56464.50;;;-142.13;66.19
11712;BME280;5912;51.034;6.984;2023-03-13T02:35:03;56444.47;;;-142.13;66.53
11712;BME280;5912;51.034;6.984;2023-03-13T02:37:31;56454.47;;;-142.13;66.33
11712;BME280;5912;51.034;6.984;2023-03-13T02:40:00;56484.53;;;-142.13;67.08
11712;BME280;5912;51.034;6.984;2023-03-13T02:42:27;56482.53;;;-142.13;67.58
11712;BME280;5912;51.034;6.984;2023-03-13T02:44:52;56434.44;;;-142.13;67.88
11712;BME280;5912;51.034;6.984;2023-03-13T02:47:20;56468.50;;;-142.13;68.56
11712;BME280;5912;51.034;6.984;2023-03-13T02:49:46;56452.47;;;-142.13;68.88
11712;BME280;5912;51.034;6.984;2023-03-13T02:52:15;56460.50;;;-142.13;68.73
11712;BME280;5912;51.034;6.984;2023-03-13T02:54:43;56560.66;;;-142.13;69.63
11712;BME280;5912;51.034;6.984;2023-03-13T02:57:09;56458.50;;;-142.13;69.76
11712;BME280;5912;51.034;6.984;2023-03-13T02:59:35;56464.50;;;-142.13;70.51
11712;BME280;5912;51.034;6.984;2023-03-13T03:02:01;56462.50;;;-142.13;70.45
11712;BME280;5912;51.034;6.984;2023-03-13T03:04:27;56488.53;;;-142.13;70.49
11712;BME280;5912;51.034;6.984;2023-03-13T03:06:53;56488.53;;;-142.13;70.63
11712;BME280;5912;51.034;6.984;2023-03-13T03:09:19;56466.50;;;-142.13;70.60
11712;BME280;5912;51.034;6.984;2023-03-13T03:11:45;56486.53;;;-142.13;70.79
11712;BME280;5912;51.034;6.984;2023-03-13T03:14:11;56464.50;;;-142.13;70.52
11712;BME280;5912;51.034;6.984;2023-03-13T03:16:37;56490.53;;;-142.13;70.88
11712;BME280;5912;51.034;6.984;2023-03-13T03:19:03;56484.53;;;-142.13;70.96
11712;BME280;5912;51.034;6.984;2023-03-13T03:21:29;56490.53;;;-142.13;70.56
11712;BME280;5912;51.034;6.984;2023-03-13T03:23:54;56464.50;;;-142.13;70.65
11712;BME280;5912;51.034;6.984;2023-03-13T03:26:19;56468.50;;;-142.13;70.61
11712;BME280;5912;51.034;6.984;2023-03-13T03:28:45;56480.53;;;-142.13;70.18
11712;BME280;5912;51.034;6.984;2023-03-13T03:31:12;56488.53;;;-142.13;70.47
11712;BME280;5912;51.034;6.984;2023-03-13T03:33:38;56468.50;;;-142.13;70.09
11712;BME280;5912;51.034;6.984;2023-03-13T03:36:06;56478.53;;;-142.13;70.11
11712;BME280;5912;51.034;6.984;2023-03-13T03:38:32;56484.53;;;-142.13;69.91
11712;BME280;5912;51.034;6.984;2023-03-13T03:40:58;56448.47;;;-142.13;69.97
11712;BME280;5912;51.034;6.984;2023-03-13T03:43:25;56462.50;;;-142.13;69.80
11712;BME280;5912;51.034;6.984;2023-03-13T03:45:50;56496.56;;;-142.13;69.55
11712;BME280;5912;51.034;6.984;2023-03-13T03:51:37;56460.50;;;-142.13;69.47
11712;BME280;5912;51.034;6.984;2023-03-13T03:54:02;56464.50;;;-142.13;69.27
11712;BME280;5912;51.034;6.984;2023-03-13T03:56:28;56476.53;;;-142.13;69.38
11712;BME280;5912;51.034;6.984;2023-03-13T03:58:53;56472.50;;;-142.13;69.36
11712;BME280;5912;51.034;6.984;2023-03-13T04:01:18;56464.50;;;-142.13;69.43
11712;BME280;5912;51.034;6.984;2023-03-13T04:03:43;56488.53;;;-142.13;69.25
11712;BME280;5912;51.034;6.984;2023-03-13T04:06:09;56472.50;;;-142.13;69.25
11712;BME280;5912;51.034;6.984;2023-03-13T04:08:35;56454.47;;;-142.13;69.67
11712;BME280;5912;51.034;6.984;2023-03-13T04:11:00;56448.47;;;-142.13;69.17
11712;BME280;5912;51.034;6.984;2023-03-13T04:13:26;56472.50;;;-142.13;69.59
11712;BME280;5912;51.034;6.984;2023-03-13T04:15:52;56484.53;;;-142.13;69.14
11712;BME280;5912;51.034;6.984;2023-03-13T04:18:17;56442.47;;;-142.13;69.02
11712;BME280;5912;51.034;6.984;2023-03-13T04:20:42;56472.50;;;-142.13;68.89
11712;BME280;5912;51.034;6.984;2023-03-13T04:23:08;56446.47;;;-142.13;68.92
11712;BME280;5912;51.034;6.984;2023-03-13T04:25:33;56462.50;;;-142.13;68.59
11712;BME280;5912;51.034;6.984;2023-03-13T04:27:58;56468.50;;;-142.13;68.58
11712;BME280;5912;51.034;6.984;2023-03-13T04:30:24;56458.50;;;-142.13;68.45
11712;BME280;5912;51.034;6.984;2023-03-13T04:32:49;56488.53;;;-142.13;68.40
11712;BME280;5912;51.034;6.984;2023-03-13T04:35:15;56460.50;;;-142.13;68.30
11712;BME280;5912;51.034;6.984;2023-03-13T04:37:40;56450.47;;;-142.13;68.44
11712;BME280;5912;51.034;6.984;2023-03-13T04:40:06;56442.47;;;-142.13;69.09
11712;BME280;5912;51.034;6.984;2023-03-13T04:42:31;56436.47;;;-142.13;68.96
11712;BME280;5912;51.034;6.984;2023-03-13T04:44:57;56456.50;;;-142.13;69.38
11712;BME280;5912;51.034;6.984;2023-03-13T04:47:22;56464.50;;;-142.13;69.34
11712;BME280;5912;51.034;6.984;2023-03-13T04:49:47;56440.47;;;-142.13;69.50
11712;BME280;5912;51.034;6.984;2023-03-13T04:52:13;56466.50;;;-142.13;69.48
11712;BME280;5912;51.034;6.984;2023-03-13T04:54:38;56460.50;;;-142.13;69.56
11712;BME280;5912;51.034;6.984;2023-03-13T04:57:03;56476.53;;;-142.13;69.50
11712;BME280;5912;51.034;6.984;2023-03-13T04:59:28;56450.47;;;-142.13;69.48
11712;BME280;5912;51.034;6.984;2023-03-13T05:01:54;56458.50;;;-142.13;69.20
11712;BME280;5912;51.034;6.984;2023-03-13T05:04:53;56460.50;;;-142.13;69.36
11712;BME280;5912;51.034;6.984;2023-03-13T05:07:19;56456.50;;;-142.13;69.22
11712;BME280;5912;51.034;6.984;2023-03-13T05:09:44;56430.44;;;-142.13;69.11
11712;BME280;5912;51.034;6.984;2023-03-13T05:12:09;56462.50;;;-142.13;69.21
11712;BME280;5912;51.034;6.984;2023-03-13T05:14:34;56444.47;;;-142.13;69.22
11712;BME280;5912;51.034;6.984;2023-03-13T05:17:00;56430.44;;;-142.13;69.16
11712;BME280;5912;51.034;6.984;2023-03-13T05:19:25;56440.47;;;-142.13;69.32
11712;BME280;5912;51.034;6.984;2023-03-13T05:21:50;56458.50;;;-142.13;69.65
11712;BME280;5912;51.034;6.984;2023-03-13T05:24:15;56458.50;;;-142.13;69.57
11712;BME280;5912;51.034;6.984;2023-03-13T05:26:41;56448.47;;;-142.13;69.67
11712;BME280;5912;51.034;6.984;2023-03-13T05:29:06;56426.44;;;-142.13;69.90
11712;BME280;5912;51.034;6.984;2023-03-13T05:31:31;56468.50;;;-142.13;69.55
11712;BME280;5912;51.034;6.984;2023-03-13T05:33:57;56418.44;;;-142.13;69.31
11712;BME280;5912;51.034;6.984;2023-03-13T05:36:22;56442.47;;;-142.13;69.45
11712;BME280;5912;51.034;6.984;2023-03-13T05:38:47;56430.44;;;-142.13;69.34
11712;BME280;5912;51.034;6.984;2023-03-13T05:41:12;56440.47;;;-142.13;69.67
11712;BME280;5912;51.034;6.984;2023-03-13T05:43:38;56444.47;;;-142.13;69.59
11712;BME280;5912;51.034;6.984;2023-03-13T05:46:03;56456.50;;;-142.13;69.46
11712;BME280;5912;51.034;6.984;2023-03-13T05:48:28;56414.41;;;-142.13;69.38
11712;BME280;5912;51.034;6.984;2023-03-13T05:51:31;56438.47;;;-142.13;69.09
11712;BME280;5912;51.034;6.984;2023-03-13T05:53:56;56416.44;;;-142.13;68.85
11712;BME280;5912;51.034;6.984;2023-03-13T05:56:21;56422.44;;;-142.13;68.61
11712;BME280;5912;51.034;6.984;2023-03-13T05:58:46;56436.47;;;-142.13;68.60
11712;BME280;5912;51.034;6.984;2023-03-13T06:01:12;56412.41;;;-142.13;68.67
11712;BME280;5912;51.034;6.984;2023-03-13T06:03:38;56468.50;;;-142.13;68.58
11712;BME280;5912;51.034;6.984;2023-03-13T06:06:04;56416.44;;;-142.13;68.86
11712;BME280;5912;51.034;6.984;2023-03-13T06:08:29;56440.47;;;-142.13;68.84
11712;BME280;5912;51.034;6.984;2023-03-13T06:10:58;56430.44;;;-142.13;68.52
11712;BME280;5912;51.034;6.984;2023-03-13T06:13:24;56436.47;;;-142.13;68.49
11712;BME280;5912;51.034;6.984;2023-03-13T06:15:51;56422.44;;;-142.13;68.14
11712;BME280;5912;51.034;6.984;2023-03-13T06:18:17;56422.44;;;-142.13;68.28
11712;BME280;5912;51.034;6.984;2023-03-13T06:20:42;56396.41;;;-142.13;68.05
11712;BME280;5912;51.034;6.984;2023-03-13T06:23:07;56446.47;;;-142.13;67.85
11712;BME280;5912;51.034;6.984;2023-03-13T06:25:33;56418.44;;;-142.13;67.88
11712;BME280;5912;51.034;6.984;2023-03-13T06:27:59;56438.47;;;-142.13;67.85
11712;BME280;5912;51.034;6.984;2023-03-13T06:30:24;56426.44;;;-142.13;68.03
11712;BME280;5912;51.034;6.984;2023-03-13T06:32:49;56408.41;;;-142.13;67.93
11712;BME280;5912;51.034;6.984;2023-03-13T06:35:15;56428.44;;;-142.13;67.70
11712;BME280;5912;51.034;6.984;2023-03-13T06:37:40;56412.41;;;-142.13;67.89
11712;BME280;5912;51.034;6.984;2023-03-13T06:40:05;56400.41;;;-142.13;67.53
11712;BME280;5912;51.034;6.984;2023-03-13T06:42:31;56420.44;;;-142.13;67.60
11712;BME280;5912;51.034;6.984;2023-03-13T06:44:56;56442.47;;;-142.13;67.11
11712;BME280;5912;51.034;6.984;2023-03-13T06:47:22;56448.47;;;-142.13;67.15
11712;BME280;5912;51.034;6.984;2023-03-13T06:49:47;56398.41;;;-142.13;67.25
11712;BME280;5912;51.034;6.984;2023-03-13T06:52:12;56378.38;;;-142.13;66.89
11712;BME280;5912;51.034;6.984;2023-03-13T06:54:38;56440.47;;;-142.13;66.97
11712;BME280;5912;51.034;6.984;2023-03-13T06:57:03;56412.41;;;-142.13;66.62
11712;BME280;5912;51.034;6.984;2023-03-13T06:59:28;56406.41;;;-142.13;66.81
11712;BME280;5912;51.034;6.984;2023-03-13T07:01:53;56418.44;;;-142.13;66.76
11712;BME280;5912;51.034;6.984;2023-03-13T07:04:19;56408.41;;;-142.13;66.68
11712;BME280;5912;51.034;6.984;2023-03-13T07:06:44;56424.44;;;-142.13;66.84
11712;BME280;5912;51.034;6.984;2023-03-13T07:09:09;56420.44;;;-142.13;66.81
11712;BME280;5912;51.034;6.984;2023-03-13T07:11:35;56416.44;;;-142.13;66.47
11712;BME280;5912;51.034;6.984;2023-03-13T07:14:00;56386.38;;;-142.13;66.56
11712;BME280;5912;51.034;6.984;2023-03-13T07:16:26;56428.44;;;-142.13;66.44
11712;BME280;5912;51.034;6.984;2023-03-13T07:18:51;56396.41;;;-142.13;66.49
11712;BME280;5912;51.034;6.984;2023-03-13T07:21:17;56388.38;;;-142.13;66.34
11712;BME280;5912;51.034;6.984;2023-03-13T07:23:42;56440.47;;;-142.13;65.64
11712;BME280;5912;51.034;6.984;2023-03-13T07:26:14;56432.44;;;-142.13;65.05
11712;BME280;5912;51.034;6.984;2023-03-13T07:28:40;56412.41;;;-142.13;64.27
11712;BME280;5912;51.034;6.984;2023-03-13T07:31:14;56406.41;;;-142.13;63.81
11712;BME280;5912;51.034;6.984;2023-03-13T07:33:39;56386.38;;;-142.13;63.44
11712;BME280;5912;51.034;6.984;2023-03-13T07:36:05;56396.41;;;-142.13;63.09
11712;BME280;5912;51.034;6.984;2023-03-13T07:38:31;56378.38;;;-142.13;62.78
11712;BME280;5912;51.034;6.984;2023-03-13T07:40:57;56400.41;;;-142.13;62.01
11712;BME280;5912;51.034;6.984;2023-03-13T07:43:23;56430.44;;;-142.13;61.20
11712;BME280;5912;51.034;6.984;2023-03-13T07:45:57;56374.34;;;-142.13;60.60
11712;BME280;5912;51.034;6.984;2023-03-13T07:48:24;56382.38;;;-142.13;60.10
11712;BME280;5912;51.034;6.984;2023-03-13T07:50:50;56380.38;;;-142.13;59.24
11712;BME280;5912;51.034;6.984;2023-03-13T07:53:16;56388.38;;;-142.13;58.51
11712;BME280;5912;51.034;6.984;2023-03-13T07:55:52;56374.34;;;-142.13;58.45
11712;BME280;5912;51.034;6.984;2023-03-13T07:58:18;56384.38;;;-142.13;57.81
11712;BME280;5912;51.034;6.984;2023-03-13T08:00:43;56350.31;;;-142.13;58.19
11712;BME280;5912;51.034;6.984;2023-03-13T08:03:09;56364.34;;;-142.13;58.00
11712;BME280;5912;51.034;6.984;2023-03-13T08:05:34;56364.34;;;-142.13;58.05
11712;BME280;5912;51.034;6.984;2023-03-13T08:07:59;56374.34;;;-142.13;57.86
11712;BME280;5912;51.034;6.984;2023-03-13T08:10:25;56410.41;;;-142.13;57.20
11712;BME280;5912;51.034;6.984;2023-03-13T08:12:50;56392.38;;;-142.13;57.40
11712;BME280;5912;51.034;6.984;2023-03-13T08:15:15;56368.34;;;-142.13;57.38
11712;BME280;5912;51.034;6.984;2023-03-13T08:17:42;56382.38;;;-142.13;57.39
11712;BME280;5912;51.034;6.984;2023-03-13T08:20:08;56710.91;;;-142.13;57.32
11712;BME280;5912;51.034;6.984;2023-03-13T08:22:34;56376.34;;;-142.13;57.49
11712;BME280;5912;51.034;6.984;2023-03-13T08:25:01;56372.34;;;-142.13;57.61
11712;BME280;5912;51.034;6.984;2023-03-13T08:27:28;56384.38;;;-142.13;57.84
11712;BME280;5912;51.034;6.984;2023-03-13T08:33:12;56400.41;;;-142.13;57.65
11712;BME280;5912;51.034;6.984;2023-03-13T08:35:37;56390.38;;;-142.13;57.80
11712;BME280;5912;51.034;6.984;2023-03-13T08:38:03;56362.34;;;-142.13;58.06
11712;BME280;5912;51.034;6.984;2023-03-13T08:40:28;56362.34;;;-142.13;58.02
11712;BME280;5912;51.034;6.984;2023-03-13T08:42:53;56402.41;;;-142.13;57.87
11712;BME280;5912;51.034;6.984;2023-03-13T08:45:19;56332.28;;;-142.13;58.23
11712;BME280;5912;51.034;6.984;2023-03-13T08:47:44;56388.38;;;-142.13;59.00
11712;BME280;5912;51.034;6.984;2023-03-13T08:50:09;56364.34;;;-142.13;58.98
11712;BME280;5912;51.034;6.984;2023-03-13T08:52:35;56358.34;;;-142.13;59.15
11712;BME280;5912;51.034;6.984;2023-03-13T08:55:00;56372.34;;;-142.13;59.38
11712;BME280;5912;51.034;6.984;2023-03-13T08:57:25;56366.34;;;-142.13;59.49
11712;BME280;5912;51.034;6.984;2023-03-13T08:59:51;56392.38;;;-142.13;59.66
11712;BME280;5912;51.034;6.984;2023-03-13T09:02:16;56404.41;;;-142.13;59.60
11712;BME280;5912;51.034;6.984;2023-03-13T09:04:45;56360.34;;;-142.13;60.07
11712;BME280;5912;51.034;6.984;2023-03-13T09:07:10;56364.34;;;-142.13;59.72
11712;BME280;5912;51.034;6.984;2023-03-13T09:09:35;56424.44;;;-142.13;59.77
11712;BME280;5912;51.034;6.984;2023-03-13T09:12:01;56364.34;;;-142.13;59.67
11712;BME280;5912;51.034;6.984;2023-03-13T09:14:26;56360.34;;;-142.13;59.49
11712;BME280;5912;51.034;6.984;2023-03-13T09:16:51;56356.31;;;-142.13;59.62
11712;BME280;5912;51.034;6.984;2023-03-13T09:19:16;56388.38;;;-142.13;59.52
11712;BME280;5912;51.034;6.984;2023-03-13T09:21:42;56364.34;;;-142.13;59.79
11712;BME280;5912;51.034;6.984;2023-03-13T09:24:07;56364.34;;;-142.13;60.09
11712;BME280;5912;51.034;6.984;2023-03-13T09:26:32;56382.38;;;-142.13;60.06
11712;BME280;5912;51.034;6.984;2023-03-13T09:28:58;56358.34;;;-142.13;59.91
11712;BME280;5912;51.034;6.984;2023-03-13T09:31:26;56368.34;;;-142.13;60.07
11712;BME280;5912;51.034;6.984;2023-03-13T09:33:52;56376.34;;;-142.13;60.04
11712;BME280;5912;51.034;6.984;2023-03-13T09:36:18;56402.41;;;-142.13;59.50
11712;BME280;5912;51.034;6.984;2023-03-13T09:38:44;56356.31;;;-142.13;59.14
11712;BME280;5912;51.034;6.984;2023-03-13T09:49:14;56364.34;;;-142.13;58.29
11712;BME280;5912;51.034;6.984;2023-03-13T09:51:45;56332.28;;;-142.13;58.23
11712;BME280;5912;51.034;6.984;2023-03-13T09:54:35;56362.34;;;-142.13;57.34
11712;BME280;5912;51.034;6.984;2023-03-13T09:57:11;56356.31;;;-142.13;57.68
11712;BME280;5912;51.034;6.984;2023-03-13T10:02:27;56326.28;;;-142.13;56.73
11712;BME280;5912;51.034;6.984;2023-03-13T10:05:02;56318.25;;;-142.13;56.08
11712;BME280;5912;51.034;6.984;2023-03-13T10:07:29;56334.28;;;-142.13;56.09
11712;BME280;5912;51.034;6.984;2023-03-13T10:09:54;56326.28;;;-142.13;56.01
11712;BME280;5912;51.034;6.984;2023-03-13T10:12:24;56318.25;;;-142.13;55.84
11712;BME280;5912;51.034;6.984;2023-03-13T10:14:53;56296.22;;;-142.13;55.43
11712;BME280;5912;51.034;6.984;2023-03-13T10:17:32;56312.25;;;-142.13;54.86
11712;BME280;5912;51.034;6.984;2023-03-13T10:20:21;56300.25;;;-142.13;54.60
11712;BME280;5912;51.034;6.984;2023-03-13T10:22:50;56300.25;;;-142.13;54.20
11712;BME280;5912;51.034;6.984;2023-03-13T10:25:28;56314.25;;;-142.13;53.56
11712;BME280;5912;51.034;6.984;2023-03-13T10:27:54;56286.22;;;-142.13;52.72
11712;BME280;5912;51.034;6.984;2023-03-13T10:30:29;56274.19;;;-142.13;49.48
11712;BME280;5912;51.034;6.984;2023-03-13T10:32:59;56234.13;;;-142.13;49.08
11712;BME280;5912;51.034;6.984;2023-03-13T10:35:32;56266.19;;;-142.13;48.57
11712;BME280;5912;51.034;6.984;2023-03-13T10:38:13;56266.19;;;-142.13;48.20
11712;BME280;5912;51.034;6.984;2023-03-13T10:40:39;56276.19;;;-142.13;48.44
11712;BME280;5912;51.034;6.984;2023-03-13T10:43:12;56276.19;;;-142.13;48.46
11712;BME280;5912;51.034;6.984;2023-03-13T10:45:39;56288.22;;;-142.13;48.28
11712;BME280;5912;51.034;6.984;2023-03-13T10:48:18;56268.19;;;-142.13;48.50
11712;BME280;5912;51.034;6.984;2023-03-13T10:50:47;56268.19;;;-142.13;48.33
11712;BME280;5912;51.034;6.984;2023-03-13T10:55:56;56288.22;;;-142.13;48.62
11712;BME280;5912;51.034;6.984;2023-03-13T10:58:39;56276.19;;;-142.13;47.61
11712;BME280;5912;51.034;6.984;2023-03-13T11:03:41;56232.13;;;-142.13;47.12
11712;BME280;5912;51.034;6.984;2023-03-13T11:09:10;56242.16;;;-142.13;44.52
11712;BME280;5912;51.034;6.984;2023-03-13T11:11:52;56192.06;;;-142.13;44.40
11712;BME280;5912;51.034;6.984;2023-03-13T11:14:24;56228.13;;;-142.13;44.74
11712;BME280;5912;51.034;6.984;2023-03-13T11:16:53;56236.13;;;-142.13;44.65
11712;BME280;5912;51.034;6.984;2023-03-13T11:19:28;56218.09;;;-142.13;44.78
11712;BME280;5912;51.034;6.984;2023-03-13T11:25:13;56206.09;;;-142.13;43.90
11712;BME280;5912;51.034;6.984;2023-03-13T11:28:00;56232.13;;;-142.13;44.42
11712;BME280;5912;51.034;6.984;2023-03-13T11:33:04;56248.16;;;-142.13;45.05
11712;BME280;5912;51.034;6.984;2023-03-13T11:35:34;56258.16;;;-142.13;45.28
11712;BME280;5912;51.034;6.984;2023-03-13T11:38:07;56272.19;;;-142.13;44.82
11712;BME280;5912;51.034;6.984;2023-03-13T11:52:08;56240.16;;;-142.13;44.56
11712;BME280;5912;51.034;6.984;2023-03-13T11:57:34;56222.13;;;-142.13;43.35
11712;BME280;5912;51.034;6.984;2023-03-13T12:03:05;56186.06;;;-142.13;41.60
11712;BME280;5912;51.034;6.984;2023-03-13T12:05:42;56212.09;;;-142.13;41.95
11712;BME280;5912;51.034;6.984;2023-03-13T12:08:15;56222.13;;;-142.13;42.59
11712;BME280;5912;51.034;6.984;2023-03-13T12:10:47;56152.00;;;-142.13;42.67
11712;BME280;5912;51.034;6.984;2023-03-13T12:13:21;56236.13;;;-142.13;41.84
11712;BME280;5912;51.034;6.984;2023-03-13T12:15:53;56224.13;;;-142.13;42.06
11712;BME280;5912;51.034;6.984;2023-03-13T12:18:38;56258.16;;;-142.13;42.57
11712;BME280;5912;51.034;6.984;2023-03-13T12:24:52;56224.13;;;-142.13;43.54
11712;BME280;5912;51.034;6.984;2023-03-13T12:26:50;56260.19;;;-142.13;43.11
11712;BME280;5912;51.034;6.984;2023-03-13T12:29:32;56252.16;;;-142.13;43.41
11712;BME280;5912;51.034;6.984;2023-03-13T12:32:08;56256.16;;;-142.13;43.28
11712;BME280;5912;51.034;6.984;2023-03-13T12:37:38;56244.16;;;-142.13;42.29
11712;BME280;5912;51.034;6.984;2023-03-13T12:40:20;56244.16;;;-142.13;41.75
11712;BME280;5912;51.034;6.984;2023-03-13T12:42:57;56268.19;;;-142.13;42.33
11712;BME280;5912;51.034;6.984;2023-03-13T12:45:26;56232.13;;;-142.13;42.03
11712;BME280;5912;51.034;6.984;2023-03-13T12:47:57;56228.13;;;-142.13;41.83
11712;BME280;5912;51.034;6.984;2023-03-13T12:50:39;56198.06;;;-142.13;41.28
11712;BME280;5912;51.034;6.984;2023-03-13T12:53:22;56216.09;;;-142.13;40.56
11712;BME280;5912;51.034;6.984;2023-03-13T12:56:23;56202.09;;;-142.13;40.40
11712;BME280;5912;51.034;6.984;2023-03-13T12:58:57;56234.13;;;-142.13;40.28
11712;BME280;5912;51.034;6.984;2023-03-13T13:01:33;56216.09;;;-142.13;40.72
11712;BME280;5912;51.034;6.984;2023-03-13T13:04:10;56218.09;;;-142.13;41.36
11712;BME280;5912;51.034;6.984;2023-03-13T13:09:30;56208.09;;;-142.13;41.05
11712;BME280;5912;51.034;6.984;2023-03-13T13:12:18;56214.09;;;-142.13;41.21
11712;BME280;5912;51.034;6.984;2023-03-13T13:14:59;56236.13;;;-142.13;41.10
11712;BME280;5912;51.034;6.984;2023-03-13T13:19:57;56244.16;;;-142.13;41.90
11712;BME280;5912;51.034;6.984;2023-03-13T13:29:58;56254.16;;;-142.13;42.71
11712;BME280;5912;51.034;6.984;2023-03-13T13:32:29;56256.16;;;-142.13;42.90
11712;BME280;5912;51.034;6.984;2023-03-13T13:37:36;56244.16;;;-142.13;44.40
11712;BME280;5912;51.034;6.984;2023-03-13T13:42:58;56268.19;;;-142.13;45.91
11712;BME280;5912;51.034;6.984;2023-03-13T13:45:37;56276.19;;;-142.13;46.63
11712;BME280;5912;51.034;6.984;2023-03-13T13:48:14;56292.22;;;-142.13;47.15
11712;BME280;5912;51.034;6.984;2023-03-13T13:51:32;56276.19;;;-142.13;47.88
11712;BME280;5912;51.034;6.984;2023-03-13T13:53:55;56280.22;;;-142.13;48.30
11712;BME280;5912;51.034;6.984;2023-03-13T14:01:47;56288.22;;;-142.13;46.81
11712;BME280;5912;51.034;6.984;2023-03-13T14:04:26;56262.19;;;-142.13;46.65
11712;BME280;5912;51.034;6.984;2023-03-13T14:06:53;56284.22;;;-142.13;47.03
11712;BME280;5912;51.034;6.984;2023-03-13T14:12:36;56268.19;;;-142.13;46.82
11712;BME280;5912;51.034;6.984;2023-03-13T14:15:06;56234.13;;;-142.13;46.18
11712;BME280;5912;51.034;6.984;2023-03-13T14:17:38;56278.19;;;-142.13;46.08
11712;BME280;5912;51.034;6.984;2023-03-13T14:20:04;56228.13;;;-142.13;45.94
11712;BME280;5912;51.034;6.984;2023-03-13T14:22:54;56254.16;;;-142.13;44.95
11712;BME280;5912;51.034;6.984;2023-03-13T14:25:21;56224.13;;;-142.13;44.39
11712;BME280;5912;51.034;6.984;2023-03-13T14:27:48;56232.13;;;-142.13;44.21
11712;BME280;5912;51.034;6.984;2023-03-13T14:30:17;56256.16;;;-142.13;44.47